PGT127 LTFJ-UBBB
Flight info
| Callsign | PGT127 |
|---|---|
| Flight time | 2h 26m |
| Altitude | 35000 |
| Route | VICEN UT380 ASMAP UL333 LATGA UT363 ESB UT364 ILHAN UW71 TBN UN61 NOLGA N61 LAGAS M747 LUSAL N319 PENOB T447 INSAN |
| Aircraft | A21N/M-SDE2E3FGHIRWXY/LB1 |
Departure
| Time | 2026-05-07 13:21 |
|---|---|
| Airport | Istanbul Sabiha Gökçen International Airport (LTFJ) |
Arrival
| Time | 2026-05-07 15:47 |
|---|---|
| Airport | Heydar Aliyev International Airport (UBBB) |
| Time | Latitude | Longitude | Altitude | Speed | Heading |
|---|---|---|---|---|---|
| 2026-05-07 12:57 | 40.90564 | 29.31549 | 320 ft | 0 kts | 333° |
| 2026-05-07 13:06 | 40.90552 | 29.31557 | 320 ft | 2 kts | 333° |
| 2026-05-07 13:06 | 40.90539 | 29.31566 | 320 ft | 2 kts | 333° |
| 2026-05-07 13:07 | 40.90526 | 29.31575 | 320 ft | 2 kts | 333° |
| 2026-05-07 13:07 | 40.90512 | 29.31584 | 320 ft | 1 kts | 348° |
| 2026-05-07 13:07 | 40.90499 | 29.31579 | 320 ft | 2 kts | 49° |
| 2026-05-07 13:07 | 40.90494 | 29.31562 | 320 ft | 2 kts | 68° |
| 2026-05-07 13:08 | 40.90487 | 29.31544 | 320 ft | 2 kts | 60° |
| 2026-05-07 13:08 | 40.90480 | 29.31527 | 320 ft | 1 kts | 64° |
| 2026-05-07 13:08 | 40.90478 | 29.31523 | 320 ft | 0 kts | 63° |
| 2026-05-07 13:11 | 40.90479 | 29.31525 | 320 ft | 0 kts | 63° |
| 2026-05-07 13:11 | 40.90486 | 29.31542 | 320 ft | 3 kts | 63° |
| 2026-05-07 13:11 | 40.90503 | 29.31588 | 320 ft | 8 kts | 63° |
| 2026-05-07 13:12 | 40.90538 | 29.31680 | 320 ft | 13 kts | 64° |
| 2026-05-07 13:12 | 40.90580 | 29.31793 | 320 ft | 14 kts | 63° |
| 2026-05-07 13:12 | 40.90626 | 29.31913 | 320 ft | 15 kts | 65° |
| 2026-05-07 13:12 | 40.90673 | 29.32050 | 320 ft | 17 kts | 65° |
| 2026-05-07 13:13 | 40.90724 | 29.32193 | 320 ft | 16 kts | 61° |
| 2026-05-07 13:13 | 40.90680 | 29.32301 | 320 ft | 15 kts | 154° |
| 2026-05-07 13:13 | 40.90601 | 29.32393 | 320 ft | 15 kts | 124° |
| 2026-05-07 13:13 | 40.90503 | 29.32472 | 320 ft | 17 kts | 155° |
| 2026-05-07 13:14 | 40.90384 | 29.32544 | 320 ft | 19 kts | 154° |
| 2026-05-07 13:14 | 40.90281 | 29.32562 | 320 ft | 13 kts | 235° |
| 2026-05-07 13:14 | 40.90242 | 29.32454 | 320 ft | 13 kts | 245° |
| 2026-05-07 13:14 | 40.90199 | 29.32338 | 320 ft | 14 kts | 244° |
| 2026-05-07 13:15 | 40.90154 | 29.32213 | 320 ft | 15 kts | 244° |
| 2026-05-07 13:15 | 40.90105 | 29.32080 | 320 ft | 15 kts | 233° |
| 2026-05-07 13:15 | 40.90016 | 29.32114 | 320 ft | 15 kts | 158° |
| 2026-05-07 13:15 | 40.89916 | 29.32170 | 320 ft | 16 kts | 155° |
| 2026-05-07 13:16 | 40.89808 | 29.32237 | 320 ft | 17 kts | 155° |
| 2026-05-07 13:16 | 40.89692 | 29.32310 | 320 ft | 18 kts | 154° |
| 2026-05-07 13:16 | 40.89582 | 29.32371 | 319 ft | 12 kts | 178° |
| 2026-05-07 13:16 | 40.89518 | 29.32361 | 319 ft | 9 kts | 156° |
| 2026-05-07 13:17 | 40.89495 | 29.32439 | 320 ft | 11 kts | 71° |
| 2026-05-07 13:17 | 40.89537 | 29.32554 | 320 ft | 15 kts | 64° |
| 2026-05-07 13:17 | 40.89590 | 29.32699 | 320 ft | 18 kts | 63° |
| 2026-05-07 13:17 | 40.89649 | 29.32859 | 320 ft | 21 kts | 64° |
| 2026-05-07 13:18 | 40.89721 | 29.33054 | 320 ft | 25 kts | 63° |
| 2026-05-07 13:18 | 40.89799 | 29.33264 | 320 ft | 26 kts | 64° |
| 2026-05-07 13:18 | 40.89878 | 29.33480 | 320 ft | 26 kts | 64° |
| 2026-05-07 13:18 | 40.89957 | 29.33695 | 320 ft | 25 kts | 64° |
| 2026-05-07 13:19 | 40.90013 | 29.33860 | 320 ft | 14 kts | 83° |
| 2026-05-07 13:19 | 40.89954 | 29.33944 | 320 ft | 13 kts | 154° |
| 2026-05-07 13:19 | 40.89861 | 29.33975 | 320 ft | 14 kts | 202° |
| 2026-05-07 13:19 | 40.89808 | 29.33879 | 320 ft | 13 kts | 251° |
| 2026-05-07 13:20 | 40.89785 | 29.33794 | 320 ft | 0 kts | 245° |
| 2026-05-07 13:20 | 40.89753 | 29.33704 | 320 ft | 41 kts | 244° |
| 2026-05-07 13:20 | 40.89518 | 29.33058 | 320 ft | 111 kts | 244° |
| 2026-05-07 13:20 | 40.89095 | 29.31911 | 320 ft | 166 kts | 245° |
| 2026-05-07 13:21 | 40.88556 | 29.30429 | 726 ft | 180 kts | 245° |
| 2026-05-07 13:21 | 40.87962 | 29.28992 | 1403 ft | 183 kts | 233° |
| 2026-05-07 13:21 | 40.86921 | 29.28059 | 2084 ft | 190 kts | 203° |
| 2026-05-07 13:21 | 40.85627 | 29.27446 | 2562 ft | 205 kts | 206° |
| 2026-05-07 13:22 | 40.84362 | 29.26471 | 3075 ft | 217 kts | 215° |
| 2026-05-07 13:22 | 40.83046 | 29.25344 | 3515 ft | 237 kts | 215° |
| 2026-05-07 13:22 | 40.81620 | 29.24115 | 4003 ft | 255 kts | 216° |
| 2026-05-07 13:22 | 40.80143 | 29.22821 | 4819 ft | 258 kts | 216° |
| 2026-05-07 13:23 | 40.78645 | 29.21501 | 5675 ft | 260 kts | 216° |
| 2026-05-07 13:23 | 40.77084 | 29.20299 | 6449 ft | 266 kts | 201° |
| 2026-05-07 13:23 | 40.75235 | 29.20057 | 7150 ft | 276 kts | 172° |
| 2026-05-07 13:23 | 40.73397 | 29.20948 | 7727 ft | 289 kts | 154° |
| 2026-05-07 13:24 | 40.71603 | 29.22135 | 8429 ft | 295 kts | 154° |
| 2026-05-07 13:24 | 40.69766 | 29.23335 | 9175 ft | 298 kts | 154° |
| 2026-05-07 13:24 | 40.67931 | 29.24648 | 9905 ft | 301 kts | 144° |
| 2026-05-07 13:24 | 40.66395 | 29.26530 | 10518 ft | 308 kts | 127° |
| 2026-05-07 13:25 | 40.65173 | 29.28882 | 10879 ft | 323 kts | 121° |
| 2026-05-07 13:25 | 40.63961 | 29.31491 | 11189 ft | 341 kts | 120° |
| 2026-05-07 13:25 | 40.62696 | 29.34210 | 11485 ft | 358 kts | 120° |
| 2026-05-07 13:25 | 40.61367 | 29.37012 | 11778 ft | 374 kts | 121° |
| 2026-05-07 13:26 | 40.59989 | 29.39993 | 12047 ft | 389 kts | 116° |
| 2026-05-07 13:26 | 40.59117 | 29.43398 | 12343 ft | 399 kts | 98° |
| 2026-05-07 13:26 | 40.59019 | 29.47041 | 12890 ft | 401 kts | 83° |
| 2026-05-07 13:26 | 40.59356 | 29.50686 | 13568 ft | 402 kts | 80° |
| 2026-05-07 13:27 | 40.59729 | 29.54315 | 14159 ft | 405 kts | 80° |
| 2026-05-07 13:27 | 40.60100 | 29.57981 | 14716 ft | 410 kts | 80° |
| 2026-05-07 13:27 | 40.60462 | 29.61722 | 15281 ft | 414 kts | 80° |
| 2026-05-07 13:27 | 40.60811 | 29.65460 | 15800 ft | 418 kts | 80° |
| 2026-05-07 13:28 | 40.61161 | 29.69269 | 16325 ft | 422 kts | 80° |
| 2026-05-07 13:28 | 40.61512 | 29.73101 | 16852 ft | 426 kts | 80° |
| 2026-05-07 13:28 | 40.61866 | 29.76989 | 17351 ft | 429 kts | 80° |
| 2026-05-07 13:28 | 40.62216 | 29.80862 | 17865 ft | 432 kts | 80° |
| 2026-05-07 13:29 | 40.62573 | 29.84823 | 18355 ft | 436 kts | 79° |
| 2026-05-07 13:29 | 40.62928 | 29.88767 | 18823 ft | 439 kts | 79° |
| 2026-05-07 13:29 | 40.63287 | 29.92770 | 19280 ft | 442 kts | 79° |
| 2026-05-07 13:29 | 40.63646 | 29.96814 | 19750 ft | 445 kts | 79° |
| 2026-05-07 13:30 | 40.64004 | 30.00845 | 20179 ft | 449 kts | 79° |
| 2026-05-07 13:30 | 40.64368 | 30.04947 | 20612 ft | 452 kts | 79° |
| 2026-05-07 13:30 | 40.64729 | 30.09026 | 21013 ft | 455 kts | 79° |
| 2026-05-07 13:30 | 40.65096 | 30.13184 | 21406 ft | 459 kts | 79° |
| 2026-05-07 13:31 | 40.65458 | 30.17316 | 21798 ft | 462 kts | 79° |
| 2026-05-07 13:31 | 40.65823 | 30.21529 | 22189 ft | 465 kts | 79° |
| 2026-05-07 13:31 | 40.66160 | 30.25808 | 22571 ft | 470 kts | 81° |
| 2026-05-07 13:31 | 40.66292 | 30.30094 | 22942 ft | 475 kts | 85° |
| 2026-05-07 13:32 | 40.66190 | 30.34414 | 23301 ft | 480 kts | 89° |
| 2026-05-07 13:32 | 40.65876 | 30.38803 | 23704 ft | 484 kts | 91° |
| 2026-05-07 13:32 | 40.65507 | 30.43200 | 24052 ft | 487 kts | 92° |
| 2026-05-07 13:32 | 40.65125 | 30.47615 | 24534 ft | 486 kts | 92° |
| 2026-05-07 13:33 | 40.64746 | 30.52011 | 25051 ft | 485 kts | 91° |
| 2026-05-07 13:33 | 40.64372 | 30.56418 | 25537 ft | 483 kts | 91° |
| 2026-05-07 13:33 | 40.64003 | 30.60792 | 26009 ft | 482 kts | 91° |
| 2026-05-07 13:33 | 40.63634 | 30.65140 | 26456 ft | 481 kts | 92° |
| 2026-05-07 13:34 | 40.63169 | 30.69523 | 26866 ft | 483 kts | 95° |
| 2026-05-07 13:34 | 40.61681 | 30.78093 | 27630 ft | 486 kts | 101° |
| 2026-05-07 13:34 | 40.60777 | 30.82370 | 28022 ft | 486 kts | 101° |
| 2026-05-07 13:35 | 40.59854 | 30.86676 | 28430 ft | 485 kts | 101° |
| 2026-05-07 13:35 | 40.58951 | 30.90891 | 28837 ft | 483 kts | 101° |
| 2026-05-07 13:35 | 40.58043 | 30.95145 | 29214 ft | 483 kts | 101° |
| 2026-05-07 13:35 | 40.57126 | 30.99444 | 29569 ft | 482 kts | 101° |
| 2026-05-07 13:36 | 40.56221 | 31.03692 | 29949 ft | 481 kts | 101° |
| 2026-05-07 13:36 | 40.55319 | 31.07926 | 30327 ft | 481 kts | 101° |
| 2026-05-07 13:36 | 40.54423 | 31.12126 | 30679 ft | 480 kts | 101° |
| 2026-05-07 13:36 | 40.53525 | 31.16313 | 31027 ft | 480 kts | 101° |
| 2026-05-07 13:37 | 40.52617 | 31.20547 | 31372 ft | 479 kts | 101° |
| 2026-05-07 13:37 | 40.51716 | 31.24725 | 31717 ft | 478 kts | 101° |
| 2026-05-07 13:37 | 40.50812 | 31.28903 | 32046 ft | 478 kts | 101° |
| 2026-05-07 13:37 | 40.49900 | 31.33112 | 32375 ft | 477 kts | 101° |
| 2026-05-07 13:38 | 40.49002 | 31.37251 | 32668 ft | 476 kts | 101° |
| 2026-05-07 13:38 | 40.48089 | 31.41456 | 32943 ft | 476 kts | 101° |
| 2026-05-07 13:38 | 40.47194 | 31.45566 | 33232 ft | 475 kts | 101° |
| 2026-05-07 13:38 | 40.46276 | 31.49773 | 33490 ft | 475 kts | 101° |
| 2026-05-07 13:39 | 40.45370 | 31.53922 | 33688 ft | 476 kts | 101° |
| 2026-05-07 13:39 | 40.44459 | 31.58082 | 33866 ft | 478 kts | 101° |
| 2026-05-07 13:39 | 40.43540 | 31.62274 | 34053 ft | 479 kts | 101° |
| 2026-05-07 13:39 | 40.42622 | 31.66461 | 34242 ft | 479 kts | 101° |
| 2026-05-07 13:40 | 40.41702 | 31.70650 | 34383 ft | 481 kts | 101° |
| 2026-05-07 13:40 | 40.40776 | 31.74860 | 34534 ft | 481 kts | 101° |
| 2026-05-07 13:40 | 40.39848 | 31.79074 | 34661 ft | 482 kts | 101° |
| 2026-05-07 13:40 | 40.38918 | 31.83288 | 34801 ft | 482 kts | 102° |
| 2026-05-07 13:41 | 40.37983 | 31.87511 | 34940 ft | 483 kts | 101° |
| 2026-05-07 13:41 | 40.37059 | 31.91673 | 35072 ft | 483 kts | 102° |
| 2026-05-07 13:41 | 40.36118 | 31.95906 | 35149 ft | 483 kts | 102° |
| 2026-05-07 13:42 | 40.34227 | 32.04333 | 35158 ft | 483 kts | 102° |
| 2026-05-07 13:42 | 40.32410 | 32.12795 | 35158 ft | 482 kts | 99° |
| 2026-05-07 13:43 | 40.30746 | 32.21234 | 35154 ft | 481 kts | 99° |
| 2026-05-07 13:43 | 40.29071 | 32.29724 | 35150 ft | 482 kts | 99° |
| 2026-05-07 13:44 | 40.27399 | 32.38154 | 35152 ft | 481 kts | 99° |
| 2026-05-07 13:44 | 40.25707 | 32.46635 | 35157 ft | 482 kts | 99° |
| 2026-05-07 13:45 | 40.24015 | 32.55086 | 35161 ft | 482 kts | 99° |
| 2026-05-07 13:45 | 40.22318 | 32.63527 | 35160 ft | 482 kts | 99° |
| 2026-05-07 13:46 | 40.20614 | 32.71969 | 35159 ft | 482 kts | 100° |
| 2026-05-07 13:46 | 40.18900 | 32.80432 | 35164 ft | 482 kts | 100° |
| 2026-05-07 13:47 | 40.17181 | 32.88884 | 35167 ft | 482 kts | 99° |
| 2026-05-07 13:47 | 40.16373 | 32.97419 | 35170 ft | 470 kts | 83° |
| 2026-05-07 13:48 | 40.17301 | 33.05721 | 35171 ft | 456 kts | 68° |
| 2026-05-07 13:48 | 40.19726 | 33.13179 | 35176 ft | 445 kts | 54° |
| 2026-05-07 13:49 | 40.22790 | 33.20175 | 35173 ft | 444 kts | 53° |
| 2026-05-07 13:49 | 40.25854 | 33.27163 | 35169 ft | 444 kts | 54° |
| 2026-05-07 13:50 | 40.28889 | 33.34162 | 35162 ft | 445 kts | 54° |
| 2026-05-07 13:50 | 40.31924 | 33.41207 | 35155 ft | 444 kts | 54° |
| 2026-05-07 13:51 | 40.34947 | 33.48247 | 35154 ft | 444 kts | 54° |
| 2026-05-07 13:51 | 40.37979 | 33.55326 | 35154 ft | 444 kts | 54° |
| 2026-05-07 13:52 | 40.40973 | 33.62331 | 35153 ft | 444 kts | 54° |
| 2026-05-07 13:52 | 40.43844 | 33.69574 | 35148 ft | 449 kts | 60° |
| 2026-05-07 13:53 | 40.46108 | 33.77191 | 35147 ft | 453 kts | 66° |
| 2026-05-07 13:53 | 40.48056 | 33.85026 | 35148 ft | 453 kts | 66° |
| 2026-05-07 13:54 | 40.50011 | 33.92895 | 35152 ft | 452 kts | 65° |
| 2026-05-07 13:54 | 40.52256 | 34.00525 | 35152 ft | 450 kts | 63° |
| 2026-05-07 13:55 | 40.54601 | 34.08095 | 35148 ft | 449 kts | 62° |
| 2026-05-07 13:55 | 40.56947 | 34.15696 | 35144 ft | 449 kts | 62° |
| 2026-05-07 13:56 | 40.59277 | 34.23284 | 35156 ft | 449 kts | 62° |
| 2026-05-07 13:56 | 40.61612 | 34.30909 | 35149 ft | 449 kts | 63° |
| 2026-05-07 13:57 | 40.63929 | 34.38507 | 35150 ft | 449 kts | 62° |
| 2026-05-07 13:57 | 40.66245 | 34.46117 | 35154 ft | 448 kts | 62° |
| 2026-05-07 13:58 | 40.68542 | 34.53686 | 35150 ft | 448 kts | 62° |
| 2026-05-07 13:58 | 40.70852 | 34.61319 | 35154 ft | 449 kts | 63° |
| 2026-05-07 13:59 | 40.73143 | 34.68916 | 35141 ft | 449 kts | 63° |
| 2026-05-07 13:59 | 40.75431 | 34.76550 | 35140 ft | 448 kts | 63° |
| 2026-05-07 14:00 | 40.77689 | 34.84216 | 35136 ft | 448 kts | 63° |
| 2026-05-07 14:00 | 40.79930 | 34.91849 | 35139 ft | 448 kts | 63° |
| 2026-05-07 14:01 | 40.82167 | 34.99494 | 35143 ft | 447 kts | 63° |
| 2026-05-07 14:01 | 40.84407 | 35.07160 | 35149 ft | 448 kts | 63° |
| 2026-05-07 14:02 | 40.86633 | 35.14790 | 35125 ft | 448 kts | 64° |
| 2026-05-07 14:02 | 40.88853 | 35.22438 | 35123 ft | 447 kts | 64° |
| 2026-05-07 14:03 | 40.91069 | 35.30087 | 35136 ft | 448 kts | 64° |
| 2026-05-07 14:03 | 40.93288 | 35.37770 | 35133 ft | 448 kts | 64° |
| 2026-05-07 14:04 | 40.95500 | 35.45457 | 35143 ft | 448 kts | 64° |
| 2026-05-07 14:04 | 40.97708 | 35.53142 | 35141 ft | 447 kts | 64° |
| 2026-05-07 14:05 | 40.99902 | 35.60799 | 35138 ft | 447 kts | 64° |
| 2026-05-07 14:05 | 41.02095 | 35.68479 | 35138 ft | 448 kts | 65° |
| 2026-05-07 14:06 | 41.04339 | 35.76152 | 35135 ft | 448 kts | 65° |
| 2026-05-07 14:06 | 41.06604 | 35.83823 | 35142 ft | 448 kts | 65° |
| 2026-05-07 14:07 | 41.08841 | 35.91452 | 35299 ft | 448 kts | 65° |
| 2026-05-07 14:07 | 41.11038 | 35.99140 | 35176 ft | 447 kts | 66° |
| 2026-05-07 14:08 | 41.13200 | 36.06862 | 35158 ft | 447 kts | 66° |
| 2026-05-07 14:08 | 41.15360 | 36.14583 | 35147 ft | 446 kts | 66° |
| 2026-05-07 14:09 | 41.17514 | 36.22295 | 35142 ft | 446 kts | 66° |
| 2026-05-07 14:09 | 41.19648 | 36.29953 | 35139 ft | 446 kts | 66° |
| 2026-05-07 14:10 | 41.21793 | 36.37672 | 35143 ft | 446 kts | 66° |
| 2026-05-07 14:10 | 41.23866 | 36.45377 | 35137 ft | 446 kts | 69° |
| 2026-05-07 14:11 | 41.25275 | 36.53431 | 35133 ft | 450 kts | 77° |
| 2026-05-07 14:11 | 41.25793 | 36.61694 | 35133 ft | 454 kts | 86° |
| 2026-05-07 14:12 | 41.25434 | 36.70085 | 35133 ft | 457 kts | 92° |
| 2026-05-07 14:12 | 41.24800 | 36.78435 | 35133 ft | 456 kts | 93° |
| 2026-05-07 14:13 | 41.24163 | 36.86801 | 35142 ft | 457 kts | 93° |
| 2026-05-07 14:13 | 41.23533 | 36.95124 | 35149 ft | 456 kts | 93° |
| 2026-05-07 14:14 | 41.22899 | 37.03490 | 35148 ft | 456 kts | 93° |
| 2026-05-07 14:14 | 41.22260 | 37.11836 | 35152 ft | 456 kts | 93° |
| 2026-05-07 14:15 | 41.21611 | 37.20202 | 35152 ft | 455 kts | 93° |
| 2026-05-07 14:15 | 41.20986 | 37.28495 | 35155 ft | 455 kts | 92° |
| 2026-05-07 14:16 | 41.20375 | 37.36871 | 35153 ft | 455 kts | 92° |
| 2026-05-07 14:16 | 41.19760 | 37.45222 | 35151 ft | 456 kts | 92° |
| 2026-05-07 14:17 | 41.19136 | 37.53515 | 35156 ft | 456 kts | 92° |
| 2026-05-07 14:17 | 41.18653 | 37.61887 | 35159 ft | 456 kts | 92° |
| 2026-05-07 14:18 | 41.17977 | 37.70280 | 35152 ft | 457 kts | 94° |
| 2026-05-07 14:18 | 41.17271 | 37.78601 | 35159 ft | 456 kts | 94° |
| 2026-05-07 14:19 | 41.16561 | 37.86917 | 35162 ft | 455 kts | 94° |
| 2026-05-07 14:19 | 41.15879 | 37.95246 | 35158 ft | 455 kts | 94° |
| 2026-05-07 14:20 | 41.15219 | 38.03574 | 35160 ft | 456 kts | 94° |
| 2026-05-07 14:20 | 41.14545 | 38.11943 | 35161 ft | 456 kts | 94° |
| 2026-05-07 14:21 | 41.13869 | 38.20258 | 35157 ft | 457 kts | 94° |
| 2026-05-07 14:21 | 41.13180 | 38.28632 | 35161 ft | 457 kts | 94° |
| 2026-05-07 14:22 | 41.12489 | 38.37015 | 35159 ft | 457 kts | 94° |
| 2026-05-07 14:22 | 41.11794 | 38.45398 | 35156 ft | 457 kts | 94° |
| 2026-05-07 14:23 | 41.11095 | 38.53751 | 35166 ft | 457 kts | 94° |
| 2026-05-07 14:23 | 41.10392 | 38.62076 | 35163 ft | 457 kts | 94° |
| 2026-05-07 14:24 | 41.09664 | 38.70456 | 35158 ft | 458 kts | 95° |
| 2026-05-07 14:24 | 41.08916 | 38.78794 | 35162 ft | 458 kts | 95° |
| 2026-05-07 14:25 | 41.08151 | 38.87204 | 35162 ft | 458 kts | 95° |
| 2026-05-07 14:25 | 41.07388 | 38.95567 | 35161 ft | 457 kts | 95° |
| 2026-05-07 14:26 | 41.06628 | 39.03865 | 35160 ft | 458 kts | 95° |
| 2026-05-07 14:26 | 41.05855 | 39.12204 | 35158 ft | 459 kts | 96° |
| 2026-05-07 14:27 | 41.05080 | 39.20601 | 35163 ft | 459 kts | 95° |
| 2026-05-07 14:27 | 41.04305 | 39.29010 | 35165 ft | 459 kts | 95° |
| 2026-05-07 14:28 | 41.03532 | 39.37341 | 35163 ft | 460 kts | 96° |
| 2026-05-07 14:28 | 41.02745 | 39.45767 | 35168 ft | 461 kts | 96° |
| 2026-05-07 14:29 | 41.01954 | 39.54165 | 35165 ft | 461 kts | 96° |
| 2026-05-07 14:29 | 41.01156 | 39.62564 | 35170 ft | 462 kts | 96° |
| 2026-05-07 14:30 | 41.00409 | 39.70931 | 35172 ft | 462 kts | 94° |
| 2026-05-07 14:30 | 41.00231 | 39.79409 | 35180 ft | 461 kts | 87° |
| 2026-05-07 14:31 | 41.00791 | 39.87828 | 35171 ft | 460 kts | 81° |
| 2026-05-07 14:31 | 41.01956 | 39.96110 | 35171 ft | 460 kts | 78° |
| 2026-05-07 14:32 | 41.03213 | 40.04409 | 35187 ft | 461 kts | 78° |
| 2026-05-07 14:32 | 41.04462 | 40.12754 | 35183 ft | 462 kts | 78° |
| 2026-05-07 14:33 | 41.05693 | 40.21069 | 35187 ft | 462 kts | 78° |
| 2026-05-07 14:33 | 41.06915 | 40.29388 | 35186 ft | 462 kts | 78° |
| 2026-05-07 14:34 | 41.08142 | 40.37768 | 35186 ft | 463 kts | 78° |
| 2026-05-07 14:34 | 41.09353 | 40.46104 | 35190 ft | 462 kts | 78° |
| 2026-05-07 14:35 | 41.10556 | 40.54420 | 35190 ft | 463 kts | 78° |
| 2026-05-07 14:35 | 41.11767 | 40.62837 | 35192 ft | 463 kts | 78° |
| 2026-05-07 14:36 | 41.12965 | 40.71216 | 35191 ft | 464 kts | 79° |
| 2026-05-07 14:36 | 41.14161 | 40.79627 | 35181 ft | 465 kts | 79° |
| 2026-05-07 14:37 | 41.15351 | 40.88029 | 35179 ft | 465 kts | 79° |
| 2026-05-07 14:37 | 41.17133 | 41.00708 | 35176 ft | 465 kts | 79° |
| 2026-05-07 14:38 | 41.18310 | 41.09149 | 35183 ft | 466 kts | 79° |
| 2026-05-07 14:38 | 41.19474 | 41.17540 | 35182 ft | 466 kts | 79° |
| 2026-05-07 14:39 | 41.20641 | 41.25986 | 35188 ft | 467 kts | 79° |
| 2026-05-07 14:39 | 41.21806 | 41.34484 | 35191 ft | 467 kts | 79° |
| 2026-05-07 14:40 | 41.22956 | 41.42916 | 35185 ft | 467 kts | 79° |
| 2026-05-07 14:40 | 41.24115 | 41.51462 | 35181 ft | 468 kts | 79° |
| 2026-05-07 14:41 | 41.25258 | 41.59930 | 35180 ft | 468 kts | 79° |
| 2026-05-07 14:41 | 41.26401 | 41.68456 | 35186 ft | 469 kts | 80° |
| 2026-05-07 14:42 | 41.27533 | 41.76937 | 35186 ft | 469 kts | 80° |
| 2026-05-07 14:42 | 41.28665 | 41.85487 | 35184 ft | 469 kts | 81° |
| 2026-05-07 14:43 | 41.29783 | 41.93983 | 35182 ft | 469 kts | 81° |
| 2026-05-07 14:43 | 41.30893 | 42.02498 | 35174 ft | 470 kts | 81° |
| 2026-05-07 14:44 | 41.31994 | 42.11059 | 35171 ft | 470 kts | 81° |
| 2026-05-07 14:44 | 41.33093 | 42.19649 | 35172 ft | 470 kts | 81° |
| 2026-05-07 14:45 | 41.34183 | 42.28210 | 35166 ft | 471 kts | 81° |
| 2026-05-07 14:45 | 41.35269 | 42.36797 | 35159 ft | 471 kts | 81° |
| 2026-05-07 14:46 | 41.36347 | 42.45367 | 35149 ft | 471 kts | 81° |
| 2026-05-07 14:46 | 41.37421 | 42.53954 | 35146 ft | 472 kts | 81° |
| 2026-05-07 14:47 | 41.38485 | 42.62530 | 35149 ft | 472 kts | 81° |
| 2026-05-07 14:47 | 41.39550 | 42.71160 | 35158 ft | 472 kts | 82° |
| 2026-05-07 14:48 | 41.40599 | 42.79714 | 35166 ft | 473 kts | 82° |
| 2026-05-07 14:48 | 41.41651 | 42.88355 | 35163 ft | 472 kts | 82° |
| 2026-05-07 14:49 | 41.42695 | 42.96972 | 35167 ft | 473 kts | 82° |
| 2026-05-07 14:49 | 41.43729 | 43.05579 | 35168 ft | 473 kts | 82° |
| 2026-05-07 14:50 | 41.44763 | 43.14222 | 35170 ft | 474 kts | 82° |
| 2026-05-07 14:50 | 41.45789 | 43.22868 | 35171 ft | 475 kts | 82° |
| 2026-05-07 14:51 | 41.46808 | 43.31521 | 35171 ft | 476 kts | 82° |
| 2026-05-07 14:51 | 41.47828 | 43.40232 | 35164 ft | 476 kts | 82° |
| 2026-05-07 14:52 | 41.48836 | 43.48903 | 35156 ft | 476 kts | 82° |
| 2026-05-07 14:52 | 41.49847 | 43.57641 | 35151 ft | 478 kts | 82° |
| 2026-05-07 14:53 | 41.50848 | 43.66368 | 35146 ft | 477 kts | 83° |
| 2026-05-07 14:53 | 41.51845 | 43.75105 | 35142 ft | 478 kts | 83° |
| 2026-05-07 14:54 | 41.52833 | 43.83831 | 35142 ft | 478 kts | 83° |
| 2026-05-07 14:54 | 41.53813 | 43.92556 | 35140 ft | 479 kts | 83° |
| 2026-05-07 14:55 | 41.54791 | 44.01325 | 35143 ft | 480 kts | 83° |
| 2026-05-07 14:55 | 41.55765 | 44.10138 | 35144 ft | 480 kts | 83° |
| 2026-05-07 14:56 | 41.56220 | 44.18948 | 35150 ft | 478 kts | 93° |
| 2026-05-07 14:56 | 41.55614 | 44.27748 | 35151 ft | 475 kts | 102° |
| 2026-05-07 14:57 | 41.53999 | 44.36181 | 35151 ft | 473 kts | 111° |
| 2026-05-07 14:57 | 41.51918 | 44.44484 | 35147 ft | 472 kts | 111° |
| 2026-05-07 14:58 | 41.49830 | 44.52780 | 35146 ft | 473 kts | 111° |
| 2026-05-07 14:58 | 41.47757 | 44.61073 | 35141 ft | 473 kts | 111° |
| 2026-05-07 14:59 | 41.45679 | 44.69378 | 35135 ft | 473 kts | 112° |
| 2026-05-07 14:59 | 41.43609 | 44.77636 | 35133 ft | 473 kts | 112° |
| 2026-05-07 15:00 | 41.41519 | 44.85943 | 35130 ft | 474 kts | 112° |
| 2026-05-07 15:00 | 41.39417 | 44.94268 | 35127 ft | 475 kts | 112° |
| 2026-05-07 15:01 | 41.37317 | 45.02564 | 35127 ft | 477 kts | 112° |
| 2026-05-07 15:01 | 41.35198 | 45.10884 | 35126 ft | 477 kts | 112° |
| 2026-05-07 15:02 | 41.33067 | 45.19203 | 35121 ft | 477 kts | 113° |
| 2026-05-07 15:02 | 41.30925 | 45.27541 | 35118 ft | 478 kts | 113° |
| 2026-05-07 15:03 | 41.28784 | 45.35860 | 35117 ft | 478 kts | 113° |
| 2026-05-07 15:03 | 41.26621 | 45.44225 | 35111 ft | 479 kts | 113° |
| 2026-05-07 15:04 | 41.24464 | 45.52544 | 35113 ft | 479 kts | 113° |
| 2026-05-07 15:04 | 41.22291 | 45.60898 | 35112 ft | 480 kts | 114° |
| 2026-05-07 15:05 | 41.20100 | 45.69275 | 35113 ft | 480 kts | 114° |
| 2026-05-07 15:05 | 41.17902 | 45.77611 | 35118 ft | 480 kts | 114° |
| 2026-05-07 15:06 | 41.16808 | 45.81758 | 34963 ft | 481 kts | 115° |
| 2026-05-07 15:06 | 41.15694 | 45.85971 | 35031 ft | 483 kts | 114° |
| 2026-05-07 15:06 | 41.13470 | 45.94360 | 35080 ft | 484 kts | 114° |
| 2026-05-07 15:07 | 41.11243 | 46.02741 | 35092 ft | 484 kts | 115° |
| 2026-05-07 15:07 | 41.09006 | 46.11130 | 35082 ft | 485 kts | 115° |
| 2026-05-07 15:08 | 41.06762 | 46.19522 | 35071 ft | 485 kts | 115° |
| 2026-05-07 15:08 | 41.04514 | 46.27889 | 35075 ft | 485 kts | 114° |
| 2026-05-07 15:09 | 41.02274 | 46.36262 | 35075 ft | 485 kts | 114° |
| 2026-05-07 15:09 | 41.00034 | 46.44647 | 35067 ft | 485 kts | 114° |
| 2026-05-07 15:10 | 40.97773 | 46.53067 | 35067 ft | 486 kts | 114° |
| 2026-05-07 15:10 | 40.95522 | 46.61440 | 35064 ft | 486 kts | 114° |
| 2026-05-07 15:11 | 40.93256 | 46.69838 | 35069 ft | 486 kts | 115° |
| 2026-05-07 15:11 | 40.90987 | 46.78207 | 35061 ft | 487 kts | 115° |
| 2026-05-07 15:12 | 40.88703 | 46.86595 | 35063 ft | 487 kts | 115° |
| 2026-05-07 15:12 | 40.86399 | 46.95000 | 35061 ft | 487 kts | 115° |
| 2026-05-07 15:13 | 40.84089 | 47.03406 | 35061 ft | 488 kts | 115° |
| 2026-05-07 15:13 | 40.81764 | 47.11835 | 35059 ft | 489 kts | 115° |
| 2026-05-07 15:14 | 40.79447 | 47.20182 | 35065 ft | 489 kts | 116° |
| 2026-05-07 15:14 | 40.77098 | 47.28585 | 35065 ft | 488 kts | 116° |
| 2026-05-07 15:15 | 40.74746 | 47.36969 | 35071 ft | 489 kts | 116° |
| 2026-05-07 15:15 | 40.72400 | 47.45319 | 35080 ft | 489 kts | 116° |
| 2026-05-07 15:16 | 40.70041 | 47.53711 | 35092 ft | 489 kts | 116° |
| 2026-05-07 15:16 | 40.67672 | 47.62107 | 35090 ft | 490 kts | 116° |
| 2026-05-07 15:17 | 40.65293 | 47.70524 | 35085 ft | 490 kts | 117° |
| 2026-05-07 15:17 | 40.62914 | 47.78904 | 35091 ft | 490 kts | 117° |
| 2026-05-07 15:18 | 40.60409 | 47.87175 | 35090 ft | 486 kts | 122° |
| 2026-05-07 15:18 | 40.57108 | 47.94811 | 35092 ft | 477 kts | 131° |
| 2026-05-07 15:19 | 40.53052 | 48.01504 | 35091 ft | 468 kts | 140° |
| 2026-05-07 15:19 | 40.48710 | 48.07878 | 35078 ft | 471 kts | 137° |
| 2026-05-07 15:20 | 40.44830 | 48.14908 | 35075 ft | 479 kts | 129° |
| 2026-05-07 15:20 | 40.41641 | 48.22599 | 34974 ft | 487 kts | 122° |
| 2026-05-07 15:21 | 40.40183 | 48.26647 | 34509 ft | 490 kts | 122° |
| 2026-05-07 15:21 | 40.38737 | 48.30703 | 33789 ft | 495 kts | 122° |
| 2026-05-07 15:21 | 40.37288 | 48.34747 | 32940 ft | 499 kts | 122° |
| 2026-05-07 15:21 | 40.35806 | 48.38857 | 32134 ft | 502 kts | 122° |
| 2026-05-07 15:22 | 40.34312 | 48.42984 | 31338 ft | 503 kts | 122° |
| 2026-05-07 15:22 | 40.32807 | 48.47138 | 30540 ft | 505 kts | 122° |
| 2026-05-07 15:22 | 40.31314 | 48.51247 | 29719 ft | 506 kts | 122° |
| 2026-05-07 15:22 | 40.29814 | 48.55368 | 28872 ft | 507 kts | 121° |
| 2026-05-07 15:23 | 40.28290 | 48.59551 | 28045 ft | 506 kts | 121° |
| 2026-05-07 15:23 | 40.26779 | 48.63690 | 27245 ft | 505 kts | 121° |
| 2026-05-07 15:23 | 40.25320 | 48.67683 | 26405 ft | 505 kts | 121° |
| 2026-05-07 15:23 | 40.23802 | 48.71834 | 25501 ft | 505 kts | 121° |
| 2026-05-07 15:24 | 40.22348 | 48.75798 | 24630 ft | 504 kts | 120° |
| 2026-05-07 15:24 | 40.20842 | 48.79902 | 23754 ft | 502 kts | 120° |
| 2026-05-07 15:24 | 40.19466 | 48.84052 | 23135 ft | 497 kts | 115° |
| 2026-05-07 15:24 | 40.18373 | 48.88328 | 22547 ft | 492 kts | 110° |
| 2026-05-07 15:25 | 40.17578 | 48.92616 | 21919 ft | 488 kts | 105° |
| 2026-05-07 15:25 | 40.16902 | 48.96938 | 21258 ft | 483 kts | 104° |
| 2026-05-07 15:25 | 40.16257 | 49.01227 | 20583 ft | 478 kts | 104° |
| 2026-05-07 15:25 | 40.15622 | 49.05434 | 19831 ft | 476 kts | 104° |
| 2026-05-07 15:26 | 40.14981 | 49.09620 | 19191 ft | 470 kts | 104° |
| 2026-05-07 15:26 | 40.14334 | 49.13789 | 18582 ft | 464 kts | 104° |
| 2026-05-07 15:26 | 40.13696 | 49.17858 | 17998 ft | 457 kts | 104° |
| 2026-05-07 15:26 | 40.13062 | 49.21882 | 17431 ft | 452 kts | 104° |
| 2026-05-07 15:27 | 40.12427 | 49.25899 | 16867 ft | 446 kts | 104° |
| 2026-05-07 15:27 | 40.11902 | 49.29858 | 16293 ft | 443 kts | 99° |
| 2026-05-07 15:27 | 40.11700 | 49.33834 | 15796 ft | 439 kts | 92° |
| 2026-05-07 15:27 | 40.11821 | 49.37791 | 15789 ft | 433 kts | 88° |
| 2026-05-07 15:28 | 40.12061 | 49.41667 | 15821 ft | 433 kts | 87° |
| 2026-05-07 15:28 | 40.12328 | 49.45612 | 15843 ft | 434 kts | 86° |
| 2026-05-07 15:28 | 40.12583 | 49.49492 | 15883 ft | 434 kts | 87° |
| 2026-05-07 15:28 | 40.12829 | 49.53405 | 15907 ft | 435 kts | 87° |
| 2026-05-07 15:29 | 40.13286 | 49.57314 | 15825 ft | 434 kts | 74° |
| 2026-05-07 15:29 | 40.14640 | 49.60790 | 15365 ft | 430 kts | 52° |
| 2026-05-07 15:29 | 40.16839 | 49.63374 | 14727 ft | 424 kts | 29° |
| 2026-05-07 15:29 | 40.19411 | 49.65161 | 14159 ft | 419 kts | 24° |
| 2026-05-07 15:30 | 40.22007 | 49.66864 | 13564 ft | 417 kts | 25° |
| 2026-05-07 15:30 | 40.24573 | 49.68613 | 13008 ft | 412 kts | 25° |
| 2026-05-07 15:30 | 40.27153 | 49.70121 | 12465 ft | 405 kts | 18° |
| 2026-05-07 15:30 | 40.29831 | 49.71173 | 12128 ft | 397 kts | 10° |
| 2026-05-07 15:31 | 40.32521 | 49.71783 | 12070 ft | 396 kts | 5° |
| 2026-05-07 15:31 | 40.35272 | 49.72255 | 12090 ft | 396 kts | 4° |
| 2026-05-07 15:31 | 40.38017 | 49.72704 | 12098 ft | 396 kts | 4° |
| 2026-05-07 15:31 | 40.40740 | 49.73154 | 12070 ft | 397 kts | 4° |
| 2026-05-07 15:32 | 40.43467 | 49.73613 | 12042 ft | 396 kts | 5° |
| 2026-05-07 15:32 | 40.46202 | 49.74080 | 12065 ft | 396 kts | 5° |
| 2026-05-07 15:32 | 40.48947 | 49.74554 | 12076 ft | 396 kts | 5° |
| 2026-05-07 15:32 | 40.51687 | 49.75029 | 11872 ft | 394 kts | 5° |
| 2026-05-07 15:33 | 40.54359 | 49.75495 | 11439 ft | 389 kts | 5° |
| 2026-05-07 15:33 | 40.57027 | 49.75960 | 10857 ft | 386 kts | 5° |
| 2026-05-07 15:33 | 40.59666 | 49.76481 | 10298 ft | 384 kts | 9° |
| 2026-05-07 15:33 | 40.62236 | 49.77472 | 9825 ft | 381 kts | 19° |
| 2026-05-07 15:34 | 40.64599 | 49.78951 | 9332 ft | 376 kts | 28° |
| 2026-05-07 15:34 | 40.66806 | 49.80693 | 9120 ft | 363 kts | 30° |
| 2026-05-07 15:34 | 40.68912 | 49.82425 | 8910 ft | 351 kts | 31° |
| 2026-05-07 15:34 | 40.70985 | 49.84021 | 8779 ft | 339 kts | 23° |
| 2026-05-07 15:35 | 40.73181 | 49.84964 | 8595 ft | 325 kts | 9° |
| 2026-05-07 15:35 | 40.75396 | 49.85222 | 8414 ft | 312 kts | 359° |
| 2026-05-07 15:35 | 40.77514 | 49.85216 | 8250 ft | 301 kts | 358° |
| 2026-05-07 15:35 | 40.79586 | 49.85179 | 8077 ft | 291 kts | 358° |
| 2026-05-07 15:36 | 40.81562 | 49.85154 | 8025 ft | 280 kts | 358° |
| 2026-05-07 15:36 | 40.83511 | 49.85141 | 8019 ft | 281 kts | 358° |
| 2026-05-07 15:36 | 40.85478 | 49.85135 | 8016 ft | 281 kts | 358° |
| 2026-05-07 15:36 | 40.87434 | 49.85132 | 8019 ft | 281 kts | 358° |
| 2026-05-07 15:37 | 40.89383 | 49.85131 | 8027 ft | 281 kts | 358° |
| 2026-05-07 15:37 | 40.91330 | 49.85132 | 8018 ft | 281 kts | 359° |
| 2026-05-07 15:37 | 40.93285 | 49.85140 | 8020 ft | 281 kts | 0° |
| 2026-05-07 15:37 | 40.95195 | 49.85687 | 7960 ft | 285 kts | 27° |
| 2026-05-07 15:38 | 40.96641 | 49.87449 | 7737 ft | 286 kts | 58° |
| 2026-05-07 15:38 | 40.97248 | 49.89941 | 7444 ft | 286 kts | 87° |
| 2026-05-07 15:38 | 40.97061 | 49.92541 | 7127 ft | 286 kts | 108° |
| 2026-05-07 15:38 | 40.96039 | 49.94755 | 6749 ft | 284 kts | 137° |
| 2026-05-07 15:39 | 40.94369 | 49.96022 | 6378 ft | 283 kts | 166° |
| 2026-05-07 15:39 | 40.92410 | 49.96203 | 6035 ft | 280 kts | 182° |
| 2026-05-07 15:39 | 40.90486 | 49.96138 | 5680 ft | 279 kts | 181° |
| 2026-05-07 15:39 | 40.88540 | 49.96096 | 5328 ft | 276 kts | 180° |
| 2026-05-07 15:40 | 40.86636 | 49.96079 | 5031 ft | 273 kts | 180° |
| 2026-05-07 15:40 | 40.84730 | 49.96072 | 4758 ft | 272 kts | 180° |
| 2026-05-07 15:40 | 40.82848 | 49.96071 | 4478 ft | 271 kts | 179° |
| 2026-05-07 15:40 | 40.80980 | 49.96070 | 4181 ft | 270 kts | 179° |
| 2026-05-07 15:41 | 40.79082 | 49.96069 | 3914 ft | 269 kts | 179° |
| 2026-05-07 15:41 | 40.77214 | 49.96070 | 3647 ft | 268 kts | 179° |
| 2026-05-07 15:41 | 40.75386 | 49.96070 | 3361 ft | 263 kts | 179° |
| 2026-05-07 15:41 | 40.73563 | 49.96072 | 3052 ft | 259 kts | 179° |
| 2026-05-07 15:42 | 40.71784 | 49.96169 | 2764 ft | 254 kts | 171° |
| 2026-05-07 15:42 | 40.70056 | 49.96609 | 2495 ft | 250 kts | 166° |
| 2026-05-07 15:42 | 40.68354 | 49.97071 | 2231 ft | 246 kts | 167° |
| 2026-05-07 15:42 | 40.66697 | 49.97527 | 2027 ft | 239 kts | 166° |
| 2026-05-07 15:43 | 40.65105 | 49.97998 | 2012 ft | 228 kts | 165° |
| 2026-05-07 15:43 | 40.63604 | 49.98465 | 2010 ft | 221 kts | 165° |
| 2026-05-07 15:43 | 40.62142 | 49.98928 | 2093 ft | 204 kts | 165° |
| 2026-05-07 15:43 | 40.60823 | 49.99345 | 2029 ft | 187 kts | 165° |
| 2026-05-07 15:44 | 40.59639 | 49.99720 | 2030 ft | 163 kts | 165° |
| 2026-05-07 15:44 | 40.58587 | 50.00052 | 1893 ft | 149 kts | 164° |
| 2026-05-07 15:44 | 40.57585 | 50.00370 | 1705 ft | 148 kts | 164° |
| 2026-05-07 15:44 | 40.56578 | 50.00689 | 1506 ft | 147 kts | 164° |
| 2026-05-07 15:45 | 40.55594 | 50.00997 | 1309 ft | 145 kts | 165° |
| 2026-05-07 15:45 | 40.54621 | 50.01307 | 1109 ft | 143 kts | 164° |
| 2026-05-07 15:45 | 40.53657 | 50.01631 | 905 ft | 142 kts | 164° |
| 2026-05-07 15:45 | 40.52699 | 50.01929 | 714 ft | 140 kts | 166° |
| 2026-05-07 15:46 | 40.50822 | 50.02493 | 395 ft | 138 kts | 165° |
| 2026-05-07 15:46 | 40.49884 | 50.02795 | 233 ft | 137 kts | 165° |
| 2026-05-07 15:46 | 40.48966 | 50.03087 | 76 ft | 136 kts | 166° |
| 2026-05-07 15:47 | 40.48089 | 50.03360 | 16 ft | 116 kts | 167° |
| 2026-05-07 15:47 | 40.47468 | 50.03554 | 16 ft | 66 kts | 166° |
| 2026-05-07 15:47 | 40.47171 | 50.03648 | 16 ft | 32 kts | 165° |
| 2026-05-07 15:47 | 40.46962 | 50.03715 | 16 ft | 29 kts | 166° |
| 2026-05-07 15:48 | 40.46810 | 50.03796 | 16 ft | 16 kts | 110° |
| 2026-05-07 15:48 | 40.46814 | 50.03868 | 16 ft | 2 kts | 77° |
| 2026-05-07 15:48 | 40.46819 | 50.03899 | 16 ft | 3 kts | 77° |
| 2026-05-07 15:48 | 40.46827 | 50.03943 | 16 ft | 6 kts | 76° |
| 2026-05-07 15:49 | 40.46841 | 50.04020 | 16 ft | 11 kts | 77° |
| 2026-05-07 15:49 | 40.46865 | 50.04153 | 16 ft | 17 kts | 76° |
| 2026-05-07 15:49 | 40.46898 | 50.04332 | 16 ft | 21 kts | 77° |
| 2026-05-07 15:49 | 40.46911 | 50.04535 | 16 ft | 23 kts | 88° |
| 2026-05-07 15:50 | 40.46917 | 50.04749 | 16 ft | 23 kts | 88° |
| 2026-05-07 15:50 | 40.46920 | 50.04959 | 16 ft | 22 kts | 93° |
| 2026-05-07 15:50 | 40.46828 | 50.05043 | 16 ft | 16 kts | 177° |
| 2026-05-07 15:50 | 40.46747 | 50.05075 | 16 ft | 8 kts | 146° |
| 2026-05-07 15:51 | 40.46724 | 50.05097 | 16 ft | 0 kts | 144° |
| 2026-05-07 15:51 | 40.46720 | 50.05101 | 16 ft | 0 kts | 143° |